الصفحة الرئيسية
METAR-TAF:

METAR-TAF

مطار :

Cesária Évora

São Vicente, الرأس الأخضر

دائرة عرض: 16-49-59N, خط طول: 25-03-25W, ارتفاع: 20 متر

مراقبة الطقس الحالي

تاريخ ووقت الإصدار 53 دقيقة قبل الساعة 22:00UTC
ريح 16 عقدة من الشرق/الشمال الشرقي
درجة الحرارة 25°درجة مئوية
الرطوبة 69%
ضغط 1017 hPa
الرؤية 10 كم أو أكثر
غيوم متفرقة على ارتفاع 2200 قدم
غيوم متفرقة على ارتفاع 20000 قدم

METAR: GVSV 152200Z 07016KT 9999 SCT022 SCT200 25/19 Q1017 NOSIG

زمن: 21:53 (22:53 UTC)

توقعات

تاريخ ووقت الإصدار 5ساعات و 53 دقيقة قبل الساعة 17:00UTC
التوقعات صالحة من15 الساعة 18 UTC إلى 16 الساعة 24 UTC
ريح 16 عقدة من الشرق/الشمال الشرقي
الرؤية 10 كم أو أكثر
غيوم متفرقة على ارتفاع 2200 قدم

TAF: GVSV 151700Z 1518/1624 06016KT 9999 SCT022

أرصاد الطقس والتوقعات من أكثر من 4000 مطار (تقارير الطقس للمطار METAR والتنبؤ بالطقس بالمطارTAF).

المحطات المتاحة هي النقط الصفراء والحمراء على الخريطة.

حرك المؤشر فوق النقطة لمعرفة اسم المحطة.

ثم انقر لمعرفة أرصاد وتوقعات الطقس.

لتغيير الخارطة: اضغط على الأزرار الخضراء مع رمز الصليب الأسود للتكبير. على الزر الأخضر مع شرطة للتصغير، أو على الأسهم الخضراء للخرائط المجاورة.


METAR-TAF: